Malexander, Sweden

10:32 PM CET on February 12, 2016 (GMT +0100)
Hatte Camping near the Sommen lake | | Change Station
CLOSE
Current Station
Personal Weather Station
Location: Jönköpings Län, JöNKöPINGS LäN
Elevation: 554 ft
Nearby Weather Stations

Elev 554 ft 58.04 °N, 15.03 °E | Updated 2 minutes ago

Light Snow
Light Snow
27.5 °F
Feels Like 28 °F
N
2.2
Wind Variable Wind from West
Gusts 11.4 mph

Today
High -- | Low -- °F
--% Chance of Precip.
Yesterday
High -- | Low -- °F
Precip. -- in
Pressure 29.42 in
Visibility 0.7 miles
Clouds
Windchill 28 °F
Dew Point 24 °F
Humidity 86%
Rainfall 0.00 in
Snow Depth Not available.
7:39 AM 4:47 PM
Waxing Crescent, 24% visible
METAR ESCF 122120Z AUTO 22007KT 1100 1000// R01/1900N R19/1900N -SN VV019/// M03/M03 Q0996
Pressure 29.42 in
Visibility 0.7 miles
Clouds
Windchill 28 °F
Dew Point 24 °F
Humidity 86%
Rainfall 0.00 in
Snow Depth Not available.
7:39 AM 4:47 PM
Waxing Crescent, 24% visible
METAR ESCF 122120Z AUTO 22007KT 1100 1000// R01/1900N R19/1900N -SN VV019/// M03/M03 Q0996

10-Day Weather Forecast

Almanac

Astronomy

Feb. 12, 2016 Rise Set
Actual Time
Civil Twilight
Nautical Twilight
Astronomical Twilight
Moon
Length of Visible Light
Length of Day
Tomorrow will be .
, % of the Moon is Illuminated

Today's Extremes

Country Highs Country Lows

Community

WunderPhotos

Upload Photos

1,892,405 photos uploaded!

WunderBlog® & News

Nearby

Air Quality

  Air Quality AQ Index Pollutant
Not available.

Snow Depth

Station Depth Elevation

Earthquake Activity

City Distance Mag. Time & Date
Minimum magnitude displayed is 2.5.

Coastal Water Temperatures

Place Temperature

Stations

Nearby Weather Stations

Station Location Temp. Windchill Dew Point Humidity Wind Precip. Elev Updated Type